LDDU/DBV METAR and TAF weather

Enter ICAO airport designator
Station Type Date Time Source
LDDU METAR 2022/12/10 01:30 UTC NOAA

LDDU 100130Z 13020KT 7000 RA SCT003 BKN008 16/15 Q1007


Station Type Date Time Source
LDDU Decoded METAR 2022/12/10 01:30 UTC NOAA

Dubrovnik / Cilipi, Croatia (LDDU) 42-34N 018-16E 165M
Dec 09, 2022 - 08:30 PM EST / 2022.12.10 0130 UTC
Wind: from the SE (130 degrees) at 23 MPH (20 KT):0
Visibility: 4 mile(s):0
Sky conditions: mostly cloudy
Weather: rain
Temperature: 60 F (16 C)
Dew Point: 59 F (15 C)
Relative Humidity: 93%
Pressure (altimeter): 29.74 in. Hg (1007 hPa)
ob: LDDU 100130Z 13020KT 7000 RA SCT003 BKN008 16/15 Q1007
cycle: 1

Station Type Date Time Source
LDDU TAF 2022/12/09 18:27 UTC NOAA

TAF TAF LDDU 091725Z 0918/1018 15016KT 9999 SCT008 BKN015 TX17/1000Z TN15/1016Z
TEMPO 0918/1018 RA BKN010 PROB30
TEMPO 0918/1000 4000 TSRA BKN008 FEW010CB PROB40
TEMPO 1000/1018 15015G25KT 2000 +TSRA BKN006 SCT010CB
BECMG 1016/1018 10008KT

Example: see airport list